METAR Data
IDs: Format: Raw Decoded Include TAF

Data at: 0156 UTC 01 Nov 2020

METAR for:KHSE (Hatteras/Mitchell Fl, NC, US)
Text:KHSE 010151Z AUTO 05006KT 10SM CLR 14/10 A3037 RMK AO2 SLP283 T01440100 $
Temperature: 14.4°C ( 58°F)
Dewpoint: 10.0°C ( 50°F) [RH = 75%]
Pressure (altimeter):30.37 inches Hg (1028.5 mb) [Sea level pressure: 1028.3 mb]
Winds:from the NE (50 degrees) at 7 MPH (6 knots; 3.1 m/s)
Visibility:10 or more sm (16+ km)
Ceiling:at least 12,000 feet AGL
Clouds:sky clear below 12,000 feet AGL
QC Flag:automated observation with no human augmentation; SOME DATA ABOVE MAY BE INACCURATE!!!"$" is an indication the sensor requires maintenance.
Text:KHSE 010051Z AUTO 05006KT 10SM CLR 14/09 A3038 RMK AO2 SLP289 T01440094 $
Temperature: 14.4°C ( 58°F)
Dewpoint: 9.4°C ( 49°F) [RH = 72%]
Pressure (altimeter):30.38 inches Hg (1028.9 mb) [Sea level pressure: 1028.9 mb]
Winds:from the NE (50 degrees) at 7 MPH (6 knots; 3.1 m/s)
Visibility:10 or more sm (16+ km)
Ceiling:at least 12,000 feet AGL
Clouds:sky clear below 12,000 feet AGL
QC Flag:automated observation with no human augmentation; SOME DATA ABOVE MAY BE INACCURATE!!!"$" is an indication the sensor requires maintenance.
Text:KHSE 312351Z AUTO 04005KT 10SM SCT070 14/09 A3038 RMK AO2 SLP287 T01440089 10178 20144 56002 $
Temperature: 14.4°C ( 58°F)
Dewpoint: 8.9°C ( 48°F) [RH = 70%]
Pressure (altimeter):30.38 inches Hg (1028.9 mb) [Sea level pressure: 1028.7 mb]
Winds:from the NE (40 degrees) at 6 MPH (5 knots; 2.6 m/s)
Visibility:10 or more sm (16+ km)
Ceiling:at least 12,000 feet AGL
Clouds: scattered clouds at 7000 feet AGL
QC Flag:automated observation with no human augmentation; SOME DATA ABOVE MAY BE INACCURATE!!!"$" is an indication the sensor requires maintenance.
Text:KHSE 312251Z AUTO 04005G15KT 10SM CLR 14/09 A3038 RMK AO2 SLP288 T01440089 $
Temperature: 14.4°C ( 58°F)
Dewpoint: 8.9°C ( 48°F) [RH = 70%]
Pressure (altimeter):30.38 inches Hg (1028.9 mb) [Sea level pressure: 1028.8 mb]
Winds:from the NE (40 degrees) at 6 MPH (5 knots; 2.6 m/s) gusting to 17 MPH (15 knots; 7.7 m/s)
Visibility:10 or more sm (16+ km)
Ceiling:at least 12,000 feet AGL
Clouds:sky clear below 12,000 feet AGL
QC Flag:automated observation with no human augmentation; SOME DATA ABOVE MAY BE INACCURATE!!!"$" is an indication the sensor requires maintenance.
Text:KHSE 312151Z AUTO 04009G16KT 10SM FEW065 15/08 A3038 RMK AO2 SLP288 T01500083 $
Temperature: 15.0°C ( 59°F)
Dewpoint: 8.3°C ( 47°F) [RH = 64%]
Pressure (altimeter):30.38 inches Hg (1028.9 mb) [Sea level pressure: 1028.8 mb]
Winds:from the NE (40 degrees) at 10 MPH (9 knots; 4.6 m/s) gusting to 18 MPH (16 knots; 8.2 m/s)
Visibility:10 or more sm (16+ km)
Ceiling:at least 12,000 feet AGL
Clouds: few clouds at 6500 feet AGL
QC Flag:automated observation with no human augmentation; SOME DATA ABOVE MAY BE INACCURATE!!!"$" is an indication the sensor requires maintenance.
Text:KHSE 312051Z AUTO 04009G16KT 10SM FEW075 15/08 A3039 RMK AO2 SLP289 T01500083 56006 $
Temperature: 15.0°C ( 59°F)
Dewpoint: 8.3°C ( 47°F) [RH = 64%]
Pressure (altimeter):30.39 inches Hg (1029.2 mb) [Sea level pressure: 1028.9 mb]
Winds:from the NE (40 degrees) at 10 MPH (9 knots; 4.6 m/s) gusting to 18 MPH (16 knots; 8.2 m/s)
Visibility:10 or more sm (16+ km)
Ceiling:at least 12,000 feet AGL
Clouds: few clouds at 7500 feet AGL
QC Flag:automated observation with no human augmentation; SOME DATA ABOVE MAY BE INACCURATE!!!"$" is an indication the sensor requires maintenance.
Text:KHSE 311951Z AUTO 03010G15KT 350V060 10SM BKN065 OVC080 16/08 A3039 RMK AO2 SLP292 T01560078 $
Temperature: 15.6°C ( 60°F)
Dewpoint: 7.8°C ( 46°F) [RH = 60%]
Pressure (altimeter):30.39 inches Hg (1029.2 mb) [Sea level pressure: 1029.2 mb]
Winds:from the NNE (30 degrees) at 12 MPH (10 knots; 5.1 m/s) gusting to 17 MPH (15 knots; 7.7 m/s)
Visibility:10 or more sm (16+ km)
Ceiling:6500 feet AGL
Clouds: broken clouds at 6500 feet AGL, overcast cloud deck at 8000 feet AGL
QC Flag:automated observation with no human augmentation; SOME DATA ABOVE MAY BE INACCURATE!!!"$" is an indication the sensor requires maintenance.
Text:KHSE 311851Z AUTO 04009G14KT 350V050 10SM OVC065 17/08 A3040 RMK AO2 SLP293 T01670078 $
Temperature: 16.7°C ( 62°F)
Dewpoint: 7.8°C ( 46°F) [RH = 56%]
Pressure (altimeter):30.40 inches Hg (1029.5 mb) [Sea level pressure: 1029.3 mb]
Winds:from the NE (40 degrees) at 10 MPH (9 knots; 4.6 m/s) gusting to 16 MPH (14 knots; 7.2 m/s)
Visibility:10 or more sm (16+ km)
Ceiling:6500 feet AGL
Clouds: overcast cloud deck at 6500 feet AGL
QC Flag:automated observation with no human augmentation; SOME DATA ABOVE MAY BE INACCURATE!!!"$" is an indication the sensor requires maintenance.
Text:KHSE 311751Z AUTO 03011G18KT 10SM BKN060 17/08 A3041 RMK AO2 SLP296 T01720078 10178 20144 58007 $
Temperature: 17.2°C ( 63°F)
Dewpoint: 7.8°C ( 46°F) [RH = 54%]
Pressure (altimeter):30.41 inches Hg (1029.9 mb) [Sea level pressure: 1029.6 mb]
Winds:from the NNE (30 degrees) at 13 MPH (11 knots; 5.7 m/s) gusting to 21 MPH (18 knots; 9.3 m/s)
Visibility:10 or more sm (16+ km)
Ceiling:6000 feet AGL
Clouds: broken clouds at 6000 feet AGL
QC Flag:automated observation with no human augmentation; SOME DATA ABOVE MAY BE INACCURATE!!!"$" is an indication the sensor requires maintenance.
Text:KHSE 311651Z AUTO 03011G16KT 10SM BKN065 17/07 A3042 RMK AO2 SLP302 T01670072 $
Temperature: 16.7°C ( 62°F)
Dewpoint: 7.2°C ( 45°F) [RH = 53%]
Pressure (altimeter):30.42 inches Hg (1030.2 mb) [Sea level pressure: 1030.2 mb]
Winds:from the NNE (30 degrees) at 13 MPH (11 knots; 5.7 m/s) gusting to 18 MPH (16 knots; 8.2 m/s)
Visibility:10 or more sm (16+ km)
Ceiling:6500 feet AGL
Clouds: broken clouds at 6500 feet AGL
QC Flag:automated observation with no human augmentation; SOME DATA ABOVE MAY BE INACCURATE!!!"$" is an indication the sensor requires maintenance.
Text:KHSE 311551Z AUTO 03010G19KT 10SM CLR 17/07 A3043 RMK AO2 SLP304 T01720072 $
Temperature: 17.2°C ( 63°F)
Dewpoint: 7.2°C ( 45°F) [RH = 52%]
Pressure (altimeter):30.43 inches Hg (1030.6 mb) [Sea level pressure: 1030.4 mb]
Winds:from the NNE (30 degrees) at 12 MPH (10 knots; 5.1 m/s) gusting to 22 MPH (19 knots; 9.8 m/s)
Visibility:10 or more sm (16+ km)
Ceiling:at least 12,000 feet AGL
Clouds:sky clear below 12,000 feet AGL
QC Flag:automated observation with no human augmentation; SOME DATA ABOVE MAY BE INACCURATE!!!"$" is an indication the sensor requires maintenance.
Text:KHSE 311451Z AUTO 03009G17KT 10SM CLR 17/08 A3043 RMK AO2 SLP303 T01670078 51023 $
Temperature: 16.7°C ( 62°F)
Dewpoint: 7.8°C ( 46°F) [RH = 56%]
Pressure (altimeter):30.43 inches Hg (1030.6 mb) [Sea level pressure: 1030.3 mb]
Winds:from the NNE (30 degrees) at 10 MPH (9 knots; 4.6 m/s) gusting to 20 MPH (17 knots; 8.7 m/s)
Visibility:10 or more sm (16+ km)
Ceiling:at least 12,000 feet AGL
Clouds:sky clear below 12,000 feet AGL
QC Flag:automated observation with no human augmentation; SOME DATA ABOVE MAY BE INACCURATE!!!"$" is an indication the sensor requires maintenance.
Text:KHSE 311351Z AUTO 03010G17KT 10SM CLR 17/07 A3041 RMK AO2 SLP296 T01670072 $
Temperature: 16.7°C ( 62°F)
Dewpoint: 7.2°C ( 45°F) [RH = 53%]
Pressure (altimeter):30.41 inches Hg (1029.9 mb) [Sea level pressure: 1029.6 mb]
Winds:from the NNE (30 degrees) at 12 MPH (10 knots; 5.1 m/s) gusting to 20 MPH (17 knots; 8.7 m/s)
Visibility:10 or more sm (16+ km)
Ceiling:at least 12,000 feet AGL
Clouds:sky clear below 12,000 feet AGL
QC Flag:automated observation with no human augmentation; SOME DATA ABOVE MAY BE INACCURATE!!!"$" is an indication the sensor requires maintenance.
Text:KHSE 311251Z AUTO 03008G17KT 10SM CLR 16/06 A3039 RMK AO2 SLP291 T01560061 $
Temperature: 15.6°C ( 60°F)
Dewpoint: 6.1°C ( 43°F) [RH = 53%]
Pressure (altimeter):30.39 inches Hg (1029.2 mb) [Sea level pressure: 1029.1 mb]
Winds:from the NNE (30 degrees) at 9 MPH (8 knots; 4.1 m/s) gusting to 20 MPH (17 knots; 8.7 m/s)
Visibility:10 or more sm (16+ km)
Ceiling:at least 12,000 feet AGL
Clouds:sky clear below 12,000 feet AGL
QC Flag:automated observation with no human augmentation; SOME DATA ABOVE MAY BE INACCURATE!!!"$" is an indication the sensor requires maintenance.
Text:KHSE 311151Z AUTO 04008KT 10SM CLR 14/06 A3036 RMK AO2 SLP280 T01440056 10144 20139 51024 $
Temperature: 14.4°C ( 58°F)
Dewpoint: 5.6°C ( 42°F) [RH = 55%]
Pressure (altimeter):30.36 inches Hg (1028.2 mb) [Sea level pressure: 1028.0 mb]
Winds:from the NE (40 degrees) at 9 MPH (8 knots; 4.1 m/s)
Visibility:10 or more sm (16+ km)
Ceiling:at least 12,000 feet AGL
Clouds:sky clear below 12,000 feet AGL
QC Flag:automated observation with no human augmentation; SOME DATA ABOVE MAY BE INACCURATE!!!"$" is an indication the sensor requires maintenance.
Text:KHSE 311051Z AUTO 03007KT 360V060 10SM BKN047 OVC055 14/06 A3034 RMK AO2 SLP273 T01440061 $
Temperature: 14.4°C ( 58°F)
Dewpoint: 6.1°C ( 43°F) [RH = 57%]
Pressure (altimeter):30.34 inches Hg (1027.5 mb) [Sea level pressure: 1027.3 mb]
Winds:from the NNE (30 degrees) at 8 MPH (7 knots; 3.6 m/s)
Visibility:10 or more sm (16+ km)
Ceiling:4700 feet AGL
Clouds: broken clouds at 4700 feet AGL, overcast cloud deck at 5500 feet AGL
QC Flag:automated observation with no human augmentation; SOME DATA ABOVE MAY BE INACCURATE!!!"$" is an indication the sensor requires maintenance.
Text:KHSE 310951Z AUTO 05008G17KT 10SM OVC050 14/07 A3032 RMK AO2 SLP267 T01440067 $
Temperature: 14.4°C ( 58°F)
Dewpoint: 6.7°C ( 44°F) [RH = 60%]
Pressure (altimeter):30.32 inches Hg (1026.8 mb) [Sea level pressure: 1026.7 mb]
Winds:from the NE (50 degrees) at 9 MPH (8 knots; 4.1 m/s) gusting to 20 MPH (17 knots; 8.7 m/s)
Visibility:10 or more sm (16+ km)
Ceiling:5000 feet AGL
Clouds: overcast cloud deck at 5000 feet AGL
QC Flag:automated observation with no human augmentation; SOME DATA ABOVE MAY BE INACCURATE!!!"$" is an indication the sensor requires maintenance.
Text:KHSE 310851Z AUTO 04008G17KT 10SM FEW038 OVC049 14/07 A3029 RMK AO2 SLP255 T01440067 53013 $
Temperature: 14.4°C ( 58°F)
Dewpoint: 6.7°C ( 44°F) [RH = 60%]
Pressure (altimeter):30.29 inches Hg (1025.8 mb) [Sea level pressure: 1025.5 mb]
Winds:from the NE (40 degrees) at 9 MPH (8 knots; 4.1 m/s) gusting to 20 MPH (17 knots; 8.7 m/s)
Visibility:10 or more sm (16+ km)
Ceiling:4900 feet AGL
Clouds: few clouds at 3800 feet AGL, overcast cloud deck at 4900 feet AGL
QC Flag:automated observation with no human augmentation; SOME DATA ABOVE MAY BE INACCURATE!!!"$" is an indication the sensor requires maintenance.
Text:KHSE 310751Z AUTO 03011G17KT 340V050 10SM FEW032 SCT050 14/08 A3027 RMK AO2 SLP249 T01440078 $
Temperature: 14.4°C ( 58°F)
Dewpoint: 7.8°C ( 46°F) [RH = 65%]
Pressure (altimeter):30.27 inches Hg (1025.1 mb) [Sea level pressure: 1024.9 mb]
Winds:from the NNE (30 degrees) at 13 MPH (11 knots; 5.7 m/s) gusting to 20 MPH (17 knots; 8.7 m/s)
Visibility:10 or more sm (16+ km)
Ceiling:at least 12,000 feet AGL
Clouds: few clouds at 3200 feet AGL, scattered clouds at 5000 feet AGL
QC Flag:automated observation with no human augmentation; SOME DATA ABOVE MAY BE INACCURATE!!!"$" is an indication the sensor requires maintenance.
Text:KHSE 310651Z AUTO 04008G17KT 010V070 10SM FEW035 BKN050 14/07 A3026 RMK AO2 SLP247 T01440072 $
Temperature: 14.4°C ( 58°F)
Dewpoint: 7.2°C ( 45°F) [RH = 62%]
Pressure (altimeter):30.26 inches Hg (1024.8 mb) [Sea level pressure: 1024.7 mb]
Winds:from the NE (40 degrees) at 9 MPH (8 knots; 4.1 m/s) gusting to 20 MPH (17 knots; 8.7 m/s)
Visibility:10 or more sm (16+ km)
Ceiling:5000 feet AGL
Clouds: few clouds at 3500 feet AGL, broken clouds at 5000 feet AGL
QC Flag:automated observation with no human augmentation; SOME DATA ABOVE MAY BE INACCURATE!!!"$" is an indication the sensor requires maintenance.
Text:KHSE 310551Z AUTO 04009G17KT 010V070 10SM FEW037 BKN050 14/07 A3025 RMK AO2 SLP242 T01440072 10161 20139 53014 $
Temperature: 14.4°C ( 58°F)
Dewpoint: 7.2°C ( 45°F) [RH = 62%]
Pressure (altimeter):30.25 inches Hg (1024.5 mb) [Sea level pressure: 1024.2 mb]
Winds:from the NE (40 degrees) at 10 MPH (9 knots; 4.6 m/s) gusting to 20 MPH (17 knots; 8.7 m/s)
Visibility:10 or more sm (16+ km)
Ceiling:5000 feet AGL
Clouds: few clouds at 3700 feet AGL, broken clouds at 5000 feet AGL
QC Flag:automated observation with no human augmentation; SOME DATA ABOVE MAY BE INACCURATE!!!"$" is an indication the sensor requires maintenance.
Text:KHSE 310451Z AUTO 04011G21KT 010V070 10SM FEW035 14/07 A3023 RMK AO2 SLP235 T01440072 402610139 $
Temperature: 14.4°C ( 58°F)
Dewpoint: 7.2°C ( 45°F) [RH = 62%]
Pressure (altimeter):30.23 inches Hg (1023.8 mb) [Sea level pressure: 1023.5 mb]
Winds:from the NE (40 degrees) at 13 MPH (11 knots; 5.7 m/s) gusting to 24 MPH (21 knots; 10.8 m/s)
Visibility:10 or more sm (16+ km)
Ceiling:at least 12,000 feet AGL
Clouds: few clouds at 3500 feet AGL
QC Flag:automated observation with no human augmentation; SOME DATA ABOVE MAY BE INACCURATE!!!"$" is an indication the sensor requires maintenance.
Text:KHSE 310351Z AUTO 05009G17KT 10SM SCT033 SCT042 14/08 A3021 RMK AO2 SLP230 T01440078 $
Temperature: 14.4°C ( 58°F)
Dewpoint: 7.8°C ( 46°F) [RH = 65%]
Pressure (altimeter):30.21 inches Hg (1023.1 mb) [Sea level pressure: 1023.0 mb]
Winds:from the NE (50 degrees) at 10 MPH (9 knots; 4.6 m/s) gusting to 20 MPH (17 knots; 8.7 m/s)
Visibility:10 or more sm (16+ km)
Ceiling:at least 12,000 feet AGL
Clouds: scattered clouds at 3300 feet AGL, scattered clouds at 4200 feet AGL
QC Flag:automated observation with no human augmentation; SOME DATA ABOVE MAY BE INACCURATE!!!"$" is an indication the sensor requires maintenance.
Text:KHSE 310251Z AUTO 04011G21KT 10SM BKN034 14/08 A3021 RMK AO2 SLP229 T01440078 51030 $
Temperature: 14.4°C ( 58°F)
Dewpoint: 7.8°C ( 46°F) [RH = 65%]
Pressure (altimeter):30.21 inches Hg (1023.1 mb) [Sea level pressure: 1022.9 mb]
Winds:from the NE (40 degrees) at 13 MPH (11 knots; 5.7 m/s) gusting to 24 MPH (21 knots; 10.8 m/s)
Visibility:10 or more sm (16+ km)
Ceiling:3400 feet AGL
Clouds: broken clouds at 3400 feet AGL
QC Flag:automated observation with no human augmentation; SOME DATA ABOVE MAY BE INACCURATE!!!"$" is an indication the sensor requires maintenance.
Text:KHSE 310151Z AUTO 03011G19KT 010V080 10SM SCT040 SCT050 15/08 A3018 RMK AO2 SLP219 T01500083 $
Temperature: 15.0°C ( 59°F)
Dewpoint: 8.3°C ( 47°F) [RH = 64%]
Pressure (altimeter):30.18 inches Hg (1022.1 mb) [Sea level pressure: 1021.9 mb]
Winds:from the NNE (30 degrees) at 13 MPH (11 knots; 5.7 m/s) gusting to 22 MPH (19 knots; 9.8 m/s)
Visibility:10 or more sm (16+ km)
Ceiling:at least 12,000 feet AGL
Clouds: scattered clouds at 4000 feet AGL, scattered clouds at 5000 feet AGL
QC Flag:automated observation with no human augmentation; SOME DATA ABOVE MAY BE INACCURATE!!!"$" is an indication the sensor requires maintenance.
Text:KHSE 310051Z AUTO 03009G19KT 360V060 10SM SCT037 SCT045 16/07 A3015 RMK AO2 SLP211 T01560072 $
Temperature: 15.6°C ( 60°F)
Dewpoint: 7.2°C ( 45°F) [RH = 57%]
Pressure (altimeter):30.15 inches Hg (1021.1 mb) [Sea level pressure: 1021.1 mb]
Winds:from the NNE (30 degrees) at 10 MPH (9 knots; 4.6 m/s) gusting to 22 MPH (19 knots; 9.8 m/s)
Visibility:10 or more sm (16+ km)
Ceiling:at least 12,000 feet AGL
Clouds: scattered clouds at 3700 feet AGL, scattered clouds at 4500 feet AGL
QC Flag:automated observation with no human augmentation; SOME DATA ABOVE MAY BE INACCURATE!!!"$" is an indication the sensor requires maintenance.
Text:KHSE 302351Z AUTO 01012G23KT 340V050 10SM FEW037 FEW050 16/06 A3012 RMK AO2 SLP198 T01610056 10183 20161 53037 $
Temperature: 16.1°C ( 61°F)
Dewpoint: 5.6°C ( 42°F) [RH = 50%]
Pressure (altimeter):30.12 inches Hg (1020.1 mb) [Sea level pressure: 1019.8 mb]
Winds:from the N (10 degrees) at 14 MPH (12 knots; 6.2 m/s) gusting to 26 MPH (23 knots; 11.8 m/s)
Visibility:10 or more sm (16+ km)
Ceiling:at least 12,000 feet AGL
Clouds: few clouds at 3700 feet AGL, few clouds at 5000 feet AGL
QC Flag:automated observation with no human augmentation; SOME DATA ABOVE MAY BE INACCURATE!!!"$" is an indication the sensor requires maintenance.
Text:KHSE 302251Z AUTO 02008G18KT 350V060 10SM BKN040 OVC049 16/08 A3008 RMK AO2 SLP185 T01610083 $
Temperature: 16.1°C ( 61°F)
Dewpoint: 8.3°C ( 47°F) [RH = 60%]
Pressure (altimeter):30.08 inches Hg (1018.7 mb) [Sea level pressure: 1018.5 mb]
Winds:from the NNE (20 degrees) at 9 MPH (8 knots; 4.1 m/s) gusting to 21 MPH (18 knots; 9.3 m/s)
Visibility:10 or more sm (16+ km)
Ceiling:4000 feet AGL
Clouds: broken clouds at 4000 feet AGL, overcast cloud deck at 4900 feet AGL
QC Flag:automated observation with no human augmentation; SOME DATA ABOVE MAY BE INACCURATE!!!"$" is an indication the sensor requires maintenance.
Text:KHSE 302151Z AUTO 34009G21KT 320V050 10SM FEW040 16/08 A3004 RMK AO2 SLP173 T01610083 $
Temperature: 16.1°C ( 61°F)
Dewpoint: 8.3°C ( 47°F) [RH = 60%]
Pressure (altimeter):30.04 inches Hg (1017.4 mb) [Sea level pressure: 1017.3 mb]
Winds:from the NNW (340 degrees) at 10 MPH (9 knots; 4.6 m/s) gusting to 24 MPH (21 knots; 10.8 m/s)
Visibility:10 or more sm (16+ km)
Ceiling:at least 12,000 feet AGL
Clouds: few clouds at 4000 feet AGL
QC Flag:automated observation with no human augmentation; SOME DATA ABOVE MAY BE INACCURATE!!!"$" is an indication the sensor requires maintenance.
Text:KHSE 302051Z AUTO VRB06G17KT 10SM BKN040 17/09 A3001 RMK AO2 SLP161 T01670089 53031 $
Temperature: 16.7°C ( 62°F)
Dewpoint: 8.9°C ( 48°F) [RH = 60%]
Pressure (altimeter):30.01 inches Hg (1016.3 mb) [Sea level pressure: 1016.1 mb]
Winds:variable direction winds at 7 MPH (6 knots; 3.1 m/s) gusting to 20 MPH (17 knots; 8.7 m/s)
Visibility:10 or more sm (16+ km)
Ceiling:4000 feet AGL
Clouds: broken clouds at 4000 feet AGL
QC Flag:automated observation with no human augmentation; SOME DATA ABOVE MAY BE INACCURATE!!!"$" is an indication the sensor requires maintenance.
Text:KHSE 301951Z AUTO 35008G21KT 310V020 10SM BKN038 17/09 A2997 RMK AO2 SLP149 T01720089
Temperature: 17.2°C ( 63°F)
Dewpoint: 8.9°C ( 48°F) [RH = 58%]
Pressure (altimeter):29.97 inches Hg (1015.0 mb) [Sea level pressure: 1014.9 mb]
Winds:from the N (350 degrees) at 9 MPH (8 knots; 4.1 m/s) gusting to 24 MPH (21 knots; 10.8 m/s)
Visibility:10 or more sm (16+ km)
Ceiling:3800 feet AGL
Clouds: broken clouds at 3800 feet AGL
QC Flag:automated observation with no human augmentation
Text:KHSE 301851Z AUTO 33009G17KT 310V040 10SM BKN036 18/10 A2994 RMK AO2 SLP138 T01780100
Temperature: 17.8°C ( 64°F)
Dewpoint: 10.0°C ( 50°F) [RH = 60%]
Pressure (altimeter):29.94 inches Hg (1014.0 mb) [Sea level pressure: 1013.8 mb]
Winds:from the NNW (330 degrees) at 10 MPH (9 knots; 4.6 m/s) gusting to 20 MPH (17 knots; 8.7 m/s)
Visibility:10 or more sm (16+ km)
Ceiling:3600 feet AGL
Clouds: broken clouds at 3600 feet AGL
QC Flag:automated observation with no human augmentation
Text:KHSE 301751Z AUTO 34011G21KT 320V030 10SM OVC033 17/10 A2992 RMK AO2 PK WND 35027/1741 SLP130 T01720100 10222 20172 51042
Temperature: 17.2°C ( 63°F)
Dewpoint: 10.0°C ( 50°F) [RH = 63%]
Pressure (altimeter):29.92 inches Hg (1013.3 mb) [Sea level pressure: 1013.0 mb]
Winds:from the NNW (340 degrees) at 13 MPH (11 knots; 5.7 m/s) gusting to 24 MPH (21 knots; 10.8 m/s)
Visibility:10 or more sm (16+ km)
Ceiling:3300 feet AGL
Clouds: overcast cloud deck at 3300 feet AGL
QC Flag:automated observation with no human augmentation
Text:KHSE 301738Z AUTO 33013G21KT 10SM OVC031 18/11 A2991 RMK AO2 T01780106
Temperature: 17.8°C ( 64°F)
Dewpoint: 10.6°C ( 51°F) [RH = 63%]
Pressure (altimeter):29.91 inches Hg (1013.0 mb)
Winds:from the NNW (330 degrees) at 15 MPH (13 knots; 6.7 m/s) gusting to 24 MPH (21 knots; 10.8 m/s)
Visibility:10 or more sm (16+ km)
Ceiling:3100 feet AGL
Clouds: overcast cloud deck at 3100 feet AGL
QC Flag:automated observation with no human augmentation
Text:KHSE 301651Z AUTO 32014G23KT 10SM BKN026 18/11 A2988 RMK AO2 SLP118 T01830111
Temperature: 18.3°C ( 65°F)
Dewpoint: 11.1°C ( 52°F) [RH = 63%]
Pressure (altimeter):29.88 inches Hg (1011.9 mb) [Sea level pressure: 1011.8 mb]
Winds:from the NW (320 degrees) at 16 MPH (14 knots; 7.2 m/s) gusting to 26 MPH (23 knots; 11.8 m/s)
Visibility:10 or more sm (16+ km)
Ceiling:2600 feet AGL
Clouds: broken clouds at 2600 feet AGL
QC Flag:automated observation with no human augmentation
Text:KHSE 301612Z AUTO 32013G25KT 10SM BKN020 17/12 A2986 RMK AO2 T01720122
Temperature: 17.2°C ( 63°F)
Dewpoint: 12.2°C ( 54°F) [RH = 72%]
Pressure (altimeter):29.86 inches Hg (1011.3 mb)
Winds:from the NW (320 degrees) at 15 MPH (13 knots; 6.7 m/s) gusting to 29 MPH (25 knots; 12.9 m/s)
Visibility:10 or more sm (16+ km)
Ceiling:2000 feet AGL
Clouds: broken clouds at 2000 feet AGL
QC Flag:automated observation with no human augmentation
Text:KHSE 301558Z AUTO 32013G25KT 10SM SCT018 18/13 A2985 RMK AO2 T01780128
Temperature: 17.8°C ( 64°F)
Dewpoint: 12.8°C ( 55°F) [RH = 73%]
Pressure (altimeter):29.85 inches Hg (1010.9 mb)
Winds:from the NW (320 degrees) at 15 MPH (13 knots; 6.7 m/s) gusting to 29 MPH (25 knots; 12.9 m/s)
Visibility:10 or more sm (16+ km)
Ceiling:at least 12,000 feet AGL
Clouds: scattered clouds at 1800 feet AGL
QC Flag:automated observation with no human augmentation
Text:KHSE 301551Z AUTO 33013G28KT 10SM BKN018 18/13 A2984 RMK AO2 PK WND 32029/1532 SLP105 T01780128
Temperature: 17.8°C ( 64°F)
Dewpoint: 12.8°C ( 55°F) [RH = 73%]
Pressure (altimeter):29.84 inches Hg (1010.6 mb) [Sea level pressure: 1010.5 mb]
Winds:from the NNW (330 degrees) at 15 MPH (13 knots; 6.7 m/s) gusting to 32 MPH (28 knots; 14.4 m/s)
Visibility:10 or more sm (16+ km)
Ceiling:1800 feet AGL
Clouds: broken clouds at 1800 feet AGL
QC Flag:automated observation with no human augmentation
Text:KHSE 301535Z AUTO 32015G29KT 10SM BKN016 18/13 A2984 RMK AO2 PK WND 32029/1532 T01780133
Temperature: 17.8°C ( 64°F)
Dewpoint: 13.3°C ( 56°F) [RH = 75%]
Pressure (altimeter):29.84 inches Hg (1010.6 mb)
Winds:from the NW (320 degrees) at 17 MPH (15 knots; 7.7 m/s) gusting to 33 MPH (29 knots; 14.9 m/s)
Visibility:10 or more sm (16+ km)
Ceiling:1600 feet AGL
Clouds: broken clouds at 1600 feet AGL
QC Flag:automated observation with no human augmentation
Text:KHSE 301451Z AUTO 32012G23KT 10SM OVC011 17/14 A2979 RMK AO2 PK WND 33030/1359 SLP089 T01720144 53062
Temperature: 17.2°C ( 63°F)
Dewpoint: 14.4°C ( 58°F) [RH = 84%]
Pressure (altimeter):29.79 inches Hg (1008.9 mb) [Sea level pressure: 1008.9 mb]
Winds:from the NW (320 degrees) at 14 MPH (12 knots; 6.2 m/s) gusting to 26 MPH (23 knots; 11.8 m/s)
Visibility:10 or more sm (16+ km)
Ceiling:1100 feet AGL
Clouds: overcast cloud deck at 1100 feet AGL
QC Flag:automated observation with no human augmentation
Text:KHSE 301438Z AUTO 33013G23KT 10SM BKN013 OVC024 18/15 A2978 RMK AO2 PK WND 33030/1359 PRESRR T01780150
Temperature: 17.8°C ( 64°F)
Dewpoint: 15.0°C ( 59°F) [RH = 84%]
Pressure (altimeter):29.78 inches Hg (1008.5 mb)
Winds:from the NNW (330 degrees) at 15 MPH (13 knots; 6.7 m/s) gusting to 26 MPH (23 knots; 11.8 m/s)
Visibility:10 or more sm (16+ km)
Ceiling:1300 feet AGL
Clouds: broken clouds at 1300 feet AGL, overcast cloud deck at 2400 feet AGL
QC Flag:automated observation with no human augmentation
Text:KHSE 301416Z AUTO 31016G26KT 10SM FEW016 BKN024 OVC035 20/16 A2976 RMK AO2 PK WND 33030/1359 PRESRR T02000161
Temperature: 20.0°C ( 68°F)
Dewpoint: 16.1°C ( 61°F) [RH = 78%]
Pressure (altimeter):29.76 inches Hg (1007.9 mb)
Winds:from the NW (310 degrees) at 18 MPH (16 knots; 8.2 m/s) gusting to 30 MPH (26 knots; 13.4 m/s)
Visibility:10 or more sm (16+ km)
Ceiling:2400 feet AGL
Clouds: few clouds at 1600 feet AGL, broken clouds at 2400 feet AGL, overcast cloud deck at 3500 feet AGL
QC Flag:automated observation with no human augmentation